Time;durP1;ratioP1;P1;durP2;ratioP2;P2;SDS_P1;SDS_P2;PMS_P1;PMS_P2;Temp;Humidity;BMP_temperature;BMP_pressure;BME280_temperature;BME280_humidity;BME280_pressure;Samples;Min_cycle;Max_cycle;Signal;HPM_P1;HPM_P2
2022/02/20 00:00:54;;;;;;;2.45;1.70;;;;;;;20.69;36.58;100462.56;5035886;28;20041;-66
2022/02/20 00:03:20;;;;;;;2.70;1.60;;;;;;;20.65;36.61;100471.09;5042688;28;20485;-66
2022/02/20 00:05:45;;;;;;;2.65;1.60;;;;;;;20.63;36.48;100484.50;5035186;28;20090;-66
2022/02/20 00:08:11;;;;;;;3.10;1.98;;;;;;;20.62;36.56;100500.56;5038856;28;20048;-66
2022/02/20 00:10:37;;;;;;;3.17;1.90;;;;;;;20.62;36.58;100495.28;5036198;28;20045;-66
2022/02/20 00:13:03;;;;;;;2.92;1.90;;;;;;;20.62;36.51;100504.03;5038209;28;20036;-66
2022/02/20 00:15:30;;;;;;;3.00;1.85;;;;;;;20.59;36.58;100493.00;5047716;28;20593;-66
2022/02/20 00:17:57;;;;;;;2.75;1.80;;;;;;;20.56;36.69;100504.00;5031960;28;20103;-66
2022/02/20 00:20:25;;;;;;;1.92;1.60;;;;;;;20.54;36.65;100509.47;5047379;28;20044;-68
2022/02/20 00:22:51;;;;;;;2.03;1.58;;;;;;;20.54;36.68;100519.22;5035536;28;20036;-66
2022/02/20 00:25:18;;;;;;;2.17;1.58;;;;;;;20.54;36.65;100524.53;5037960;28;20056;-66
2022/02/20 00:27:43;;;;;;;2.03;1.40;;;;;;;20.51;36.64;100523.09;5068912;28;20060;-66
2022/02/20 00:30:09;;;;;;;2.65;1.73;;;;;;;20.51;36.64;100531.03;5038198;28;20045;-66
2022/02/20 00:32:35;;;;;;;2.28;1.40;;;;;;;20.49;36.55;100533.03;5031992;28;20048;-66
2022/02/20 00:35:01;;;;;;;2.67;1.98;;;;;;;20.45;36.80;100548.44;5021817;28;20036;-66
2022/02/20 00:37:27;;;;;;;1.88;1.33;;;;;;;20.31;36.92;100546.69;5052136;28;20094;-66
2022/02/20 00:39:52;;;;;;;1.70;1.50;;;;;;;20.45;36.62;100561.69;5037257;28;20071;-66
2022/02/20 00:42:20;;;;;;;2.10;1.85;;;;;;;20.39;36.81;100564.25;5039615;28;20120;-67
2022/02/20 00:44:45;;;;;;;2.47;1.95;;;;;;;20.41;36.80;100572.81;5035295;28;20046;-66
2022/02/20 00:47:11;;;;;;;2.15;1.55;;;;;;;20.37;36.84;100582.94;5038855;28;20036;-67
2022/02/20 00:49:37;;;;;;;1.90;1.40;;;;;;;20.34;36.96;100583.31;5041421;28;20486;-66
2022/02/20 00:52:03;;;;;;;3.17;1.60;;;;;;;20.38;36.87;100594.34;5039390;28;20094;-66
2022/02/20 00:54:29;;;;;;;2.53;2.03;;;;;;;20.38;36.82;100612.84;5038923;28;20041;-66
2022/02/20 00:56:54;;;;;;;4.03;1.98;;;;;;;20.29;36.89;100613.97;5042148;28;20444;-66
2022/02/20 00:59:20;;;;;;;2.28;1.63;;;;;;;20.25;36.99;100621.47;5040308;28;20494;-66
2022/02/20 01:01:45;;;;;;;2.50;1.80;;;;;;;20.25;37.04;100639.97;5047099;28;20400;-66
2022/02/20 01:04:11;;;;;;;2.30;1.65;;;;;;;20.23;36.93;100642.81;5032731;28;20055;-67
2022/02/20 01:06:36;;;;;;;2.72;1.55;;;;;;;20.21;36.93;100655.38;5058141;28;20068;-66
2022/02/20 01:09:03;;;;;;;1.52;1.42;;;;;;;20.21;36.86;100665.16;5037254;28;20044;-66
2022/02/20 01:11:30;;;;;;;2.90;1.42;;;;;;;20.20;37.10;100672.25;5042509;28;20082;-66
2022/02/20 01:13:56;;;;;;;2.30;1.60;;;;;;;20.23;36.94;100686.94;5035427;28;20156;-66
2022/02/20 01:16:21;;;;;;;2.08;1.63;;;;;;;20.21;36.88;100694.22;5040691;28;20036;-66
2022/02/20 01:18:47;;;;;;;1.60;1.20;;;;;;;20.17;37.04;100706.19;5039475;28;20049;-66
2022/02/20 01:21:12;;;;;;;2.53;1.45;;;;;;;20.08;37.01;100702.00;5041898;28;20426;-66
2022/02/20 01:23:38;;;;;;;1.70;1.48;;;;;;;20.14;37.05;100725.88;5037072;28;20060;-66
2022/02/20 01:26:04;;;;;;;1.30;1.20;;;;;;;20.10;37.13;100735.16;5040182;28;20041;-66
2022/02/20 01:28:30;;;;;;;2.03;1.40;;;;;;;20.10;37.14;100737.81;5037103;28;20061;-66
2022/02/20 01:30:55;;;;;;;1.48;1.27;;;;;;;20.07;36.95;100735.53;5045585;28;20024;-66
2022/02/20 01:33:21;;;;;;;2.42;1.33;;;;;;;20.08;37.03;100745.09;5031451;28;20486;-66
2022/02/20 01:35:46;;;;;;;2.72;1.73;;;;;;;20.04;37.10;100743.00;5044373;28;20399;-66
2022/02/20 01:38:15;;;;;;;1.42;1.33;;;;;;;20.07;37.17;100755.88;5036523;28;20028;-67
2022/02/20 01:40:45;;;;;;;2.58;1.40;;;;;;;20.06;37.14;100759.50;5043772;28;20040;-66
2022/02/20 01:43:12;;;;;;;2.35;1.50;;;;;;;20.02;37.21;100774.91;5038554;28;20041;-67
2022/02/20 01:45:39;;;;;;;2.03;1.20;;;;;;;19.98;37.15;100781.59;5041221;28;20036;-66
2022/02/20 01:48:06;;;;;;;2.78;1.48;;;;;;;20.01;37.13;100801.53;5035405;28;20769;-67
2022/02/20 01:50:33;;;;;;;1.63;1.48;;;;;;;19.97;37.17;100803.72;5035485;28;20025;-66
2022/02/20 01:52:59;;;;;;;1.30;1.10;;;;;;;19.95;36.95;100804.91;5071894;28;20095;-67
2022/02/20 01:55:25;;;;;;;2.83;1.50;;;;;;;19.92;37.16;100811.34;5033443;28;20039;-66
2022/02/20 01:58:20;;;;;;;1.95;1.10;;;;;;;19.91;37.45;100826.41;5035618;28;20254;-66
2022/02/20 02:01:11;;;;;;;1.55;1.40;;;;;;;19.87;37.24;100834.88;5021593;28;20049;-66
2022/02/20 02:03:54;;;;;;;1.85;1.25;;;;;;;19.87;37.29;100843.63;5037284;28;20048;-66
2022/02/20 02:06:49;;;;;;;3.13;1.45;;;;;;;19.84;37.29;100845.81;5031960;28;20041;-66
2022/02/20 02:09:26;;;;;;;2.22;1.58;;;;;;;19.83;37.35;100844.97;5034688;28;20465;-66
2022/02/20 02:12:12;;;;;;;1.60;1.15;;;;;;;19.84;37.20;100845.81;5041711;28;20395;-66
2022/02/20 02:14:59;;;;;;;2.22;1.25;;;;;;;19.82;37.36;100845.16;5031837;28;20095;-66
2022/02/20 02:17:45;;;;;;;2.13;1.30;;;;;;;19.83;37.21;100852.91;5030126;28;20119;-66
2022/02/20 02:20:39;;;;;;;1.05;0.95;;;;;;;19.83;37.29;100846.81;5030721;28;20057;-67
2022/02/20 02:23:13;;;;;;;2.30;1.20;;;;;;;19.81;37.22;100839.06;5038903;28;20057;-67
2022/02/20 02:25:58;;;;;;;1.15;1.00;;;;;;;19.73;37.46;100833.84;5037283;28;20419;-66
2022/02/20 02:28:39;;;;;;;1.33;0.98;;;;;;;19.77;37.24;100824.56;5040508;28;20048;-66
2022/02/20 02:31:12;;;;;;;1.35;1.20;;;;;;;19.73;37.40;100815.34;5036920;28;20098;-66
2022/02/20 02:33:38;;;;;;;1.00;1.00;;;;;;;19.77;37.26;100827.22;5040610;28;20115;-66
2022/02/20 02:36:06;;;;;;;1.40;1.30;;;;;;;19.77;37.12;100818.47;5037063;28;20826;-66
2022/02/20 02:38:33;;;;;;;1.80;1.10;;;;;;;19.71;37.18;100822.63;5021699;28;20033;-66
2022/02/20 02:41:04;;;;;;;1.60;1.38;;;;;;;19.73;37.44;100828.53;5029212;28;20053;-66
2022/02/20 02:43:31;;;;;;;2.35;1.02;;;;;;;19.72;37.43;100834.84;5039823;28;20056;-66
2022/02/20 02:45:56;;;;;;;0.95;0.90;;;;;;;19.72;37.34;100834.00;5035394;28;20057;-66
2022/02/20 02:48:22;;;;;;;2.00;1.35;;;;;;;19.69;37.17;100829.09;5064835;28;20076;-66
2022/02/20 02:50:49;;;;;;;1.35;0.85;;;;;;;19.57;37.44;100810.22;5035838;28;20029;-66
2022/02/20 02:53:15;;;;;;;1.15;0.85;;;;;;;19.67;37.31;100831.09;5039137;28;20035;-66
2022/02/20 02:55:48;;;;;;;1.90;1.20;;;;;;;19.67;37.42;100828.44;5035885;28;20064;-66
2022/02/20 02:58:22;;;;;;;1.17;1.08;;;;;;;19.66;37.24;100835.56;5042936;28;20518;-66
2022/02/20 03:00:50;;;;;;;1.63;1.10;;;;;;;19.65;37.38;100833.91;5050018;28;20465;-66
2022/02/20 03:03:16;;;;;;;1.25;0.90;;;;;;;19.66;37.36;100840.84;5040608;28;20040;-66
2022/02/20 03:05:43;;;;;;;1.77;1.23;;;;;;;19.64;37.28;100839.38;5034054;28;20075;-66
2022/02/20 03:08:09;;;;;;;1.33;1.00;;;;;;;19.65;37.38;100838.38;5034198;28;20108;-66
2022/02/20 03:10:35;;;;;;;1.88;1.30;;;;;;;19.63;37.21;100843.84;5015947;28;20529;-66
2022/02/20 03:13:03;;;;;;;0.90;0.70;;;;;;;19.62;37.33;100852.75;5031952;28;20491;-66
2022/02/20 03:15:29;;;;;;;0.88;0.82;;;;;;;19.57;37.37;100855.94;5030846;28;20041;-66
2022/02/20 03:17:56;;;;;;;1.02;0.98;;;;;;;19.63;37.38;100872.91;5020897;28;20119;-66
2022/02/20 03:20:21;;;;;;;1.50;0.80;;;;;;;19.59;37.30;100876.91;5036001;28;20052;-66
2022/02/20 03:22:47;;;;;;;0.90;0.80;;;;;;;19.61;37.31;100869.63;5036377;28;20049;-66
2022/02/20 03:25:13;;;;;;;1.35;0.90;;;;;;;19.57;37.37;100868.34;5040188;28;20144;-66
2022/02/20 03:27:41;;;;;;;0.77;0.70;;;;;;;19.52;37.31;100857.41;5038106;28;20547;-66
2022/02/20 03:30:12;;;;;;;1.15;0.80;;;;;;;19.56;37.24;100864.84;5034173;28;20860;-66
2022/02/20 03:32:43;;;;;;;0.88;0.88;;;;;;;19.52;37.33;100868.81;5036739;28;20065;-66
2022/02/20 03:35:10;;;;;;;1.13;1.00;;;;;;;19.55;37.35;100873.75;5033861;28;20044;-66
2022/02/20 03:37:36;;;;;;;1.50;1.02;;;;;;;19.51;37.25;100875.09;5037037;28;20410;-66
2022/02/20 03:40:03;;;;;;;0.65;0.65;;;;;;;19.47;37.30;100862.41;5036856;28;20871;-67
2022/02/20 03:42:30;;;;;;;0.70;0.70;;;;;;;19.52;37.38;100857.41;5029873;28;20069;-66
2022/02/20 03:45:16;;;;;;;1.10;1.00;;;;;;;19.49;37.35;100857.78;5027982;28;20258;-66
2022/02/20 03:47:51;;;;;;;0.70;0.70;;;;;;;19.48;37.34;100856.97;5043463;28;20029;-66
2022/02/20 03:50:18;;;;;;;1.05;0.95;;;;;;;19.50;37.32;100857.59;5057721;28;20213;-66
2022/02/20 03:52:48;;;;;;;0.85;0.70;;;;;;;19.46;37.22;100855.50;5039006;28;20040;-66
2022/02/20 03:55:21;;;;;;;1.23;0.90;;;;;;;19.45;37.35;100862.59;5042245;28;20422;-66
2022/02/20 03:57:49;;;;;;;0.77;0.65;;;;;;;19.43;37.42;100853.22;5042861;28;20032;-66
2022/02/20 04:00:16;;;;;;;2.17;1.13;;;;;;;19.46;37.35;100842.28;5043826;28;20603;-66
2022/02/20 04:02:42;;;;;;;0.57;0.57;;;;;;;19.47;37.32;100849.22;5034399;28;20037;-66
2022/02/20 04:05:11;;;;;;;0.80;0.60;;;;;;;19.44;37.29;100846.94;5029657;28;20037;-66
2022/02/20 04:07:38;;;;;;;0.65;0.65;;;;;;;19.46;37.45;100848.41;5041250;28;20426;-66
2022/02/20 04:10:06;;;;;;;0.98;0.90;;;;;;;19.45;37.21;100832.72;5041138;28;20621;-65
2022/02/20 04:12:32;;;;;;;1.38;1.00;;;;;;;19.43;37.32;100827.63;5042207;28;20048;-66
2022/02/20 04:14:58;;;;;;;1.05;0.73;;;;;;;19.41;37.40;100821.72;5040474;28;20043;-66
2022/02/20 04:17:25;;;;;;;0.70;0.70;;;;;;;19.40;37.41;100822.72;5041091;28;20095;-66
2022/02/20 04:19:52;;;;;;;1.05;0.80;;;;;;;19.40;37.47;100832.44;5032613;28;20036;-66
2022/02/20 04:22:18;;;;;;;0.47;0.47;;;;;;;19.39;37.36;100826.34;5039696;28;20633;-66
2022/02/20 04:24:44;;;;;;;1.02;0.63;;;;;;;19.36;37.37;100826.66;5042411;28;20059;-68
2022/02/20 04:27:13;;;;;;;1.08;0.68;;;;;;;19.34;37.36;100820.75;5038265;28;20040;-67
2022/02/20 04:29:41;;;;;;;0.63;0.53;;;;;;;19.31;37.63;100821.94;5041163;28;20123;-66
2022/02/20 04:32:07;;;;;;;1.33;0.90;;;;;;;19.35;37.52;100822.38;5038352;28;20060;-66
2022/02/20 04:34:33;;;;;;;0.65;0.65;;;;;;;19.33;37.32;100814.66;5043428;28;20045;-66
2022/02/20 04:36:58;;;;;;;1.02;0.90;;;;;;;19.24;37.43;100788.50;5033462;28;20107;-66
2022/02/20 04:39:24;;;;;;;0.85;0.70;;;;;;;19.36;37.38;100812.66;5041612;28;20044;-66
2022/02/20 04:41:50;;;;;;;1.40;0.60;;;;;;;19.33;37.52;100812.00;5053201;28;20041;-66
2022/02/20 04:44:22;;;;;;;0.70;0.70;;;;;;;19.34;37.33;100810.19;5038660;28;20506;-66
2022/02/20 04:46:50;;;;;;;0.60;0.60;;;;;;;19.34;37.32;100799.63;5041459;28;20102;-66
2022/02/20 04:49:16;;;;;;;0.40;0.40;;;;;;;19.33;37.36;100805.91;5036538;28;20533;-66
2022/02/20 04:52:00;;;;;;;1.20;0.43;;;;;;;19.30;37.30;100798.34;5039177;28;20079;-66
2022/02/20 04:54:44;;;;;;;0.90;0.75;;;;;;;19.31;37.50;100794.69;5038763;28;20162;-66
2022/02/20 04:57:13;;;;;;;0.90;0.55;;;;;;;19.30;37.31;100782.50;5035945;28;20038;-66
2022/02/20 04:59:40;;;;;;;0.95;0.80;;;;;;;19.30;37.42;100785.13;5042417;28;20107;-66
2022/02/20 05:02:06;;;;;;;0.80;0.80;;;;;;;19.27;37.64;100773.13;5038497;28;20045;-66
2022/02/20 05:04:36;;;;;;;1.00;0.70;;;;;;;19.29;37.35;100786.13;5043630;28;20037;-66
2022/02/20 05:07:03;;;;;;;1.38;0.82;;;;;;;19.30;37.35;100779.88;5051178;28;20048;-66
2022/02/20 05:09:36;;;;;;;0.57;0.57;;;;;;;19.21;37.24;100767.72;5045095;28;20041;-66
2022/02/20 05:12:04;;;;;;;1.20;0.60;;;;;;;19.19;37.57;100775.81;5035474;28;20104;-66
2022/02/20 05:14:31;;;;;;;0.70;0.52;;;;;;;19.26;37.51;100776.75;5045343;28;20043;-66
2022/02/20 05:17:05;;;;;;;0.60;0.60;;;;;;;19.25;37.54;100772.47;5034257;28;20101;-66
2022/02/20 05:19:46;;;;;;;0.95;0.65;;;;;;;19.24;37.52;100768.19;5045406;28;20045;-66
2022/02/20 05:22:12;;;;;;;0.70;0.70;;;;;;;19.25;37.52;100758.47;5034365;28;20574;-66
2022/02/20 05:24:45;;;;;;;0.55;0.55;;;;;;;19.20;37.46;100748.41;5039887;28;20048;-66
2022/02/20 05:27:12;;;;;;;0.40;0.40;;;;;;;19.19;37.32;100738.03;5035627;28;20833;-66
2022/02/20 05:29:39;;;;;;;0.85;0.57;;;;;;;19.19;37.58;100738.03;5039305;28;20025;-66
2022/02/20 05:32:07;;;;;;;0.43;0.43;;;;;;;19.18;37.58;100733.75;5020944;28;20479;-66
2022/02/20 05:34:56;;;;;;;0.80;0.80;;;;;;;19.17;37.69;100722.38;5025077;28;20106;-66
2022/02/20 05:37:23;;;;;;;0.50;0.50;;;;;;;19.21;37.55;100712.28;5033251;28;20032;-66
2022/02/20 05:39:49;;;;;;;0.77;0.77;;;;;;;19.51;37.16;100711.34;5037490;28;20045;-66
2022/02/20 05:42:15;;;;;;;0.88;0.80;;;;;;;19.69;37.39;100695.19;5050610;28;20040;-66
2022/02/20 05:44:47;;;;;;;0.80;0.50;;;;;;;20.17;36.57;100677.91;5039232;28;20047;-66
2022/02/20 05:47:14;;;;;;;0.70;0.50;;;;;;;20.69;35.79;100662.84;5061623;28;20037;-66
2022/02/20 05:49:41;;;;;;;0.50;0.50;;;;;;;20.97;35.41;100665.53;5026506;28;20039;-66
2022/02/20 05:52:07;;;;;;;0.60;0.50;;;;;;;21.28;34.94;100642.16;5030904;28;20044;-67
2022/02/20 05:54:38;;;;;;;2.28;0.68;;;;;;;21.47;34.76;100619.47;5072376;28;20032;-66
2022/02/20 05:57:06;;;;;;;0.32;0.32;;;;;;;21.60;34.46;100610.78;5031496;28;20041;-66
2022/02/20 05:59:35;;;;;;;0.65;0.47;;;;;;;21.40;34.93;100606.19;5037517;28;20037;-66
2022/02/20 06:02:01;;;;;;;0.55;0.55;;;;;;;21.34;35.03;100587.59;5017210;28;20033;-66
2022/02/20 06:04:26;;;;;;;0.75;0.75;;;;;;;21.20;35.15;100578.75;5038024;28;20364;-66
2022/02/20 06:06:52;;;;;;;0.60;0.50;;;;;;;21.10;35.25;100579.09;5033358;28;20037;-66
2022/02/20 06:09:40;;;;;;;0.90;0.60;;;;;;;20.95;35.85;100588.13;5049163;28;20033;-66
2022/02/20 06:12:11;;;;;;;1.48;0.50;;;;;;;20.88;35.77;100579.34;5037675;28;20457;-66
2022/02/20 06:14:45;;;;;;;1.00;0.80;;;;;;;20.72;36.00;100562.72;5033626;28;20500;-66
2022/02/20 06:17:16;;;;;;;1.83;0.60;;;;;;;20.66;36.03;100542.34;5034045;28;20449;-67
2022/02/20 06:19:50;;;;;;;0.43;0.43;;;;;;;20.85;35.94;100540.03;5040368;28;20127;-66
2022/02/20 06:22:29;;;;;;;0.55;0.55;;;;;;;21.10;35.67;100549.97;5068068;28;20048;-66
2022/02/20 06:25:13;;;;;;;0.90;0.50;;;;;;;21.39;35.18;100538.34;5042547;28;20198;-66
2022/02/20 06:27:49;;;;;;;0.57;0.50;;;;;;;21.67;34.67;100535.59;5053312;28;20789;-66
2022/02/20 06:30:16;;;;;;;0.88;0.73;;;;;;;21.79;34.73;100533.19;5041710;28;20033;-67
2022/02/20 06:32:42;;;;;;;0.60;0.50;;;;;;;21.78;34.75;100526.25;5036443;28;20036;-66
2022/02/20 06:35:08;;;;;;;0.30;0.30;;;;;;;21.71;34.73;100528.03;5041457;28;20049;-66
2022/02/20 06:37:36;;;;;;;1.63;0.50;;;;;;;21.50;34.78;100501.69;5029247;28;20663;-66
2022/02/20 06:40:02;;;;;;;0.75;0.60;;;;;;;21.48;35.04;100503.72;5042329;28;20037;-67
2022/02/20 06:42:29;;;;;;;0.65;0.40;;;;;;;21.40;35.08;100504.72;5035230;28;20032;-67
2022/02/20 06:44:58;;;;;;;0.70;0.50;;;;;;;21.29;35.44;100503.44;5020953;28;20048;-66
2022/02/20 06:47:44;;;;;;;1.30;0.55;;;;;;;21.22;35.37;100484.03;5035795;28;20540;-66
2022/02/20 06:50:22;;;;;;;0.57;0.55;;;;;;;21.17;35.67;100470.56;5038860;28;21140;-66
2022/02/20 06:53:06;;;;;;;1.50;0.40;;;;;;;21.11;35.60;100461.56;5043134;28;20155;-67
2022/02/20 06:55:57;;;;;;;0.60;0.38;;;;;;;21.11;35.71;100435.09;5021705;28;20044;-66
2022/02/20 06:58:23;;;;;;;0.73;0.55;;;;;;;21.24;35.47;100423.78;5035929;28;20042;-66
2022/02/20 07:00:49;;;;;;;0.43;0.30;;;;;;;21.22;35.33;100407.25;5034205;28;20136;-66
2022/02/20 07:03:14;;;;;;;0.40;0.40;;;;;;;21.22;35.28;100394.00;5036322;28;20049;-66
2022/02/20 07:05:41;;;;;;;1.20;0.50;;;;;;;21.17;35.37;100383.16;5042749;28;20033;-66
2022/02/20 07:08:06;;;;;;;0.30;0.30;;;;;;;21.15;35.45;100387.84;5037243;28;20037;-66
2022/02/20 07:10:32;;;;;;;0.75;0.47;;;;;;;21.10;35.54;100383.16;5042804;28;20037;-66
2022/02/20 07:12:57;;;;;;;0.90;0.50;;;;;;;21.17;35.43;100367.28;5031400;28;20656;-66
2022/02/20 07:15:25;;;;;;;0.95;0.40;;;;;;;21.14;35.56;100367.69;5043579;28;20058;-66
2022/02/20 07:17:51;;;;;;;0.77;0.38;;;;;;;21.22;35.36;100350.81;5036202;28;20033;-66
2022/02/20 07:20:16;;;;;;;1.10;0.50;;;;;;;21.42;35.24;100349.06;5042174;28;20044;-66
2022/02/20 07:22:42;;;;;;;0.50;0.25;;;;;;;21.51;35.07;100342.53;5040768;28;20381;-66
2022/02/20 07:25:08;;;;;;;0.30;0.30;;;;;;;21.45;35.11;100337.25;5038447;28;20734;-66
2022/02/20 07:27:39;;;;;;;0.93;0.57;;;;;;;21.37;35.04;100331.13;5038028;28;20049;-66
2022/02/20 07:30:06;;;;;;;0.52;0.20;;;;;;;21.33;35.20;100342.31;5038065;28;20032;-66
2022/02/20 07:32:31;;;;;;;0.55;0.40;;;;;;;21.29;35.26;100326.00;5044360;28;20032;-67
2022/02/20 07:34:57;;;;;;;0.70;0.70;;;;;;;21.26;35.23;100307.88;5057116;28;20092;-66
2022/02/20 07:37:23;;;;;;;0.40;0.40;;;;;;;21.33;35.34;100335.16;5037701;28;20265;-66
2022/02/20 07:39:48;;;;;;;0.70;0.50;;;;;;;21.34;35.22;100325.41;5033861;28;20051;-66
2022/02/20 07:42:14;;;;;;;0.52;0.52;;;;;;;21.33;35.29;100316.63;5041323;28;20041;-67
2022/02/20 07:44:39;;;;;;;1.45;0.60;;;;;;;21.32;35.32;100322.13;5044194;28;20040;-66
2022/02/20 07:47:05;;;;;;;2.35;0.63;;;;;;;21.31;35.20;100309.91;5038397;28;20068;-67
2022/02/20 07:49:32;;;;;;;0.80;0.50;;;;;;;21.27;35.23;100309.50;5040501;28;20098;-66
2022/02/20 07:51:57;;;;;;;1.70;0.40;;;;;;;21.21;35.12;100320.88;5042759;28;20045;-66
2022/02/20 07:54:24;;;;;;;0.75;0.38;;;;;;;21.13;35.39;100323.69;5038380;28;20044;-66
2022/02/20 07:56:53;;;;;;;0.47;0.47;;;;;;;21.05;35.51;100316.75;5046813;28;20517;-67
2022/02/20 07:59:19;;;;;;;1.38;0.70;;;;;;;21.04;35.53;100290.50;5029857;28;20049;-66
2022/02/20 08:01:44;;;;;;;1.65;0.98;;;;;;;21.10;35.42;100274.63;5039882;28;20481;-66
2022/02/20 08:04:10;;;;;;;1.25;0.70;;;;;;;21.16;35.29;100280.94;5034105;28;20041;-66
2022/02/20 08:06:35;;;;;;;1.05;0.55;;;;;;;21.19;35.13;100271.78;5042693;28;20487;-67
2022/02/20 08:09:03;;;;;;;1.73;0.60;;;;;;;21.18;35.30;100275.44;5039659;28;20052;-66
2022/02/20 08:11:31;;;;;;;0.38;0.32;;;;;;;21.17;35.09;100256.06;5039500;28;20505;-66
2022/02/20 08:13:57;;;;;;;1.00;0.50;;;;;;;21.18;35.21;100248.94;5038425;28;20112;-66
2022/02/20 08:16:23;;;;;;;0.70;0.70;;;;;;;21.21;35.26;100248.56;5037405;28;20033;-66
2022/02/20 08:18:48;;;;;;;1.42;0.68;;;;;;;21.24;35.20;100234.91;5041021;28;20041;-66
2022/02/20 08:21:14;;;;;;;1.83;0.38;;;;;;;21.21;35.27;100235.34;5038656;28;20036;-66
2022/02/20 08:23:40;;;;;;;0.75;0.50;;;;;;;21.25;35.16;100229.44;5042575;28;20414;-66
2022/02/20 08:26:06;;;;;;;0.95;0.60;;;;;;;21.28;35.05;100228.22;5039619;28;20053;-67
2022/02/20 08:28:32;;;;;;;0.88;0.70;;;;;;;21.27;35.18;100232.72;5036779;28;20037;-66
2022/02/20 08:30:57;;;;;;;1.00;0.60;;;;;;;21.27;35.05;100216.81;5039363;28;20048;-66
2022/02/20 08:33:23;;;;;;;2.05;0.85;;;;;;;21.26;35.20;100217.84;5042292;28;20043;-66
2022/02/20 08:35:49;;;;;;;1.80;0.73;;;;;;;21.18;35.32;100193.34;5038338;28;20508;-66
2022/02/20 08:38:16;;;;;;;1.10;0.57;;;;;;;21.09;35.28;100193.56;5037910;28;20395;-66
2022/02/20 08:40:43;;;;;;;0.70;0.45;;;;;;;21.06;35.41;100199.28;5035463;28;20041;-66
2022/02/20 08:43:09;;;;;;;0.70;0.60;;;;;;;21.02;35.39;100189.28;5039909;28;20045;-66
2022/02/20 08:45:34;;;;;;;2.40;0.65;;;;;;;21.15;35.29;100186.63;5037821;28;20032;-66
2022/02/20 08:48:01;;;;;;;1.65;0.43;;;;;;;21.13;35.39;100189.50;5035560;28;20698;-66
2022/02/20 08:50:27;;;;;;;0.85;0.60;;;;;;;21.12;35.50;100177.28;5038041;28;20033;-66
2022/02/20 08:52:53;;;;;;;1.20;0.55;;;;;;;21.13;35.53;100172.78;5052886;28;20530;-67
2022/02/20 08:55:19;;;;;;;1.20;0.50;;;;;;;21.13;35.63;100160.38;5036462;28;20052;-67
2022/02/20 08:57:45;;;;;;;1.77;0.55;;;;;;;21.21;35.57;100171.78;5033126;28;20045;-66
2022/02/20 09:00:12;;;;;;;3.17;0.70;;;;;;;21.27;35.38;100163.03;5034556;28;20040;-67
2022/02/20 09:02:38;;;;;;;0.60;0.40;;;;;;;21.28;35.21;100167.31;5035758;28;20053;-67
2022/02/20 09:05:04;;;;;;;1.55;0.75;;;;;;;21.31;35.25;100165.06;5029991;28;20476;-67
2022/02/20 09:07:29;;;;;;;1.33;0.75;;;;;;;21.26;35.49;100158.78;5037680;28;20047;-67
2022/02/20 09:09:55;;;;;;;0.63;0.55;;;;;;;21.25;35.33;100163.25;5034316;28;20043;-67
2022/02/20 09:12:21;;;;;;;0.32;0.32;;;;;;;21.29;35.33;100155.72;5041408;28;20083;-67
2022/02/20 09:14:46;;;;;;;0.65;0.50;;;;;;;21.23;35.35;100149.38;5033577;28;20036;-67
2022/02/20 09:17:13;;;;;;;1.65;0.70;;;;;;;21.18;35.51;100162.38;5048782;28;20114;-67
2022/02/20 09:19:38;;;;;;;1.20;0.80;;;;;;;21.11;35.62;100164.25;5034157;28;20051;-67
2022/02/20 09:22:04;;;;;;;0.80;0.50;;;;;;;21.18;35.36;100154.44;5042598;28;20041;-67
2022/02/20 09:24:29;;;;;;;2.45;0.70;;;;;;;21.25;35.55;100168.53;5031964;28;20422;-67
2022/02/20 09:26:55;;;;;;;1.10;0.70;;;;;;;21.20;35.41;100165.69;5044515;28;20037;-67
2022/02/20 09:29:20;;;;;;;0.70;0.70;;;;;;;21.17;35.67;100155.47;5031101;28;20511;-67
2022/02/20 09:31:46;;;;;;;1.58;0.73;;;;;;;21.21;35.55;100143.47;5040495;28;20044;-67
2022/02/20 09:34:12;;;;;;;0.50;0.50;;;;;;;21.30;35.58;100155.50;5032581;28;20045;-67
2022/02/20 09:36:37;;;;;;;1.33;0.93;;;;;;;21.32;35.44;100148.16;5037901;28;20063;-67
2022/02/20 09:39:04;;;;;;;2.75;0.70;;;;;;;21.28;35.61;100132.91;5036045;28;20133;-67
2022/02/20 09:41:31;;;;;;;0.45;0.43;;;;;;;21.29;35.45;100137.97;5034042;28;20120;-67
2022/02/20 09:43:59;;;;;;;1.25;0.47;;;;;;;21.29;35.60;100134.53;5041510;28;20334;-67
2022/02/20 09:46:26;;;;;;;2.15;0.73;;;;;;;21.31;35.54;100128.00;5031633;28;20090;-67
2022/02/20 09:48:53;;;;;;;1.70;0.50;;;;;;;21.31;35.54;100121.88;5037342;28;20045;-67
2022/02/20 09:51:19;;;;;;;1.77;0.90;;;;;;;21.18;35.71;100116.56;5031673;28;20087;-68
2022/02/20 09:53:45;;;;;;;1.55;0.68;;;;;;;21.21;36.18;100108.25;5001146;28;20041;-69
2022/02/20 09:56:11;;;;;;;1.70;0.90;;;;;;;21.26;36.39;100109.28;5034164;28;20045;-72
2022/02/20 09:58:36;;;;;;;2.15;0.88;;;;;;;21.27;36.38;100108.25;5041820;28;20090;-70
2022/02/20 10:01:10;;;;;;;2.58;0.90;;;;;;;21.40;36.68;100110.06;5036265;28;20417;-69
2022/02/20 10:03:37;;;;;;;2.53;0.88;;;;;;;21.39;36.61;100105.78;5041464;28;20126;-72
2022/02/20 10:06:05;;;;;;;1.50;1.08;;;;;;;21.41;36.68;100106.41;5035301;28;20128;-69
2022/02/20 10:08:40;;;;;;;2.72;0.95;;;;;;;21.44;36.55;100090.09;5014633;28;20041;-71
2022/02/20 10:11:22;;;;;;;2.30;1.13;;;;;;;21.45;36.74;100090.91;5025795;28;20029;-72
2022/02/20 10:13:55;;;;;;;1.88;0.90;;;;;;;21.45;36.51;100088.25;5037881;28;20032;-71
2022/02/20 10:16:31;;;;;;;3.47;0.93;;;;;;;21.48;36.68;100090.47;5016000;28;20037;-70
2022/02/20 10:19:01;;;;;;;2.85;1.20;;;;;;;21.48;36.63;100083.34;5053551;28;20051;-72
2022/02/20 10:21:47;;;;;;;3.28;1.17;;;;;;;21.52;36.62;100076.59;5035352;28;20048;-70
2022/02/20 10:24:31;;;;;;;1.48;0.95;;;;;;;21.53;36.46;100078.22;5010249;28;21349;-69
2022/02/20 10:27:18;;;;;;;2.90;1.23;;;;;;;21.52;36.80;100079.25;5028727;28;20051;-68
2022/02/20 10:30:20;;;;;;;3.55;1.33;;;;;;;21.49;36.63;100100.84;5040503;28;20863;-69
2022/02/20 10:33:02;;;;;;;3.05;1.13;;;;;;;21.55;36.76;100086.00;5037762;28;20029;-67
2022/02/20 10:35:31;;;;;;;4.25;1.83;;;;;;;21.62;36.55;100092.88;5008339;28;20392;-68
2022/02/20 10:37:57;;;;;;;2.70;1.35;;;;;;;21.67;36.62;100079.81;5037590;28;20059;-70
2022/02/20 10:40:28;;;;;;;5.95;2.20;;;;;;;21.67;36.63;100093.06;5006910;28;20762;-69
2022/02/20 10:42:59;;;;;;;3.30;1.33;;;;;;;21.73;36.28;100086.13;5027240;28;20028;-69
2022/02/20 10:45:35;;;;;;;3.53;1.63;;;;;;;21.71;36.31;100081.00;5032937;28;20056;-68
2022/02/20 10:48:03;;;;;;;3.88;1.95;;;;;;;21.72;36.33;100079.19;5016020;28;20452;-67
2022/02/20 10:50:30;;;;;;;4.88;1.60;;;;;;;21.73;36.47;100077.38;5028375;28;20021;-68
2022/02/20 10:53:19;;;;;;;4.47;2.15;;;;;;;21.76;36.48;100085.72;5010033;28;20052;-71
2022/02/20 10:55:50;;;;;;;5.82;2.15;;;;;;;21.69;36.27;100067.16;5031838;28;20717;-69
2022/02/20 10:58:24;;;;;;;3.90;1.48;;;;;;;21.75;36.59;100067.38;5002400;28;20703;-71
2022/02/20 11:00:53;;;;;;;4.95;2.15;;;;;;;21.78;36.19;100065.09;5028608;28;20032;-71
2022/02/20 11:03:23;;;;;;;7.80;2.13;;;;;;;21.82;36.17;100068.94;5026786;28;22336;-68
2022/02/20 11:05:50;;;;;;;4.85;2.03;;;;;;;21.76;36.42;100082.25;5031700;28;20720;-66
2022/02/20 11:08:19;;;;;;;6.38;1.80;;;;;;;21.63;36.84;100060.06;5011524;28;20691;-66
2022/02/20 11:10:45;;;;;;;6.25;2.13;;;;;;;21.69;36.81;100051.25;5034309;28;20036;-71
2022/02/20 11:13:12;;;;;;;3.38;1.60;;;;;;;21.74;36.69;100050.66;5014435;28;20410;-69
2022/02/20 11:15:39;;;;;;;4.90;1.85;;;;;;;21.79;36.64;100066.72;5024376;28;20585;-70
2022/02/20 11:18:09;;;;;;;6.43;2.28;;;;;;;21.79;36.76;100064.09;5035116;28;20124;-70
2022/02/20 11:20:38;;;;;;;6.27;2.10;;;;;;;21.83;36.60;100061.81;5005141;28;20033;-71
2022/02/20 11:23:05;;;;;;;8.70;2.33;;;;;;;21.80;36.88;100056.94;5032721;28;20024;-71
2022/02/20 11:25:33;;;;;;;4.10;1.83;;;;;;;21.83;37.03;100048.56;5011006;28;20067;-71
2022/02/20 11:28:00;;;;;;;4.50;1.90;;;;;;;22.09;36.36;100056.41;5034756;28;20598;-70
2022/02/20 11:30:26;;;;;;;5.60;2.10;;;;;;;22.07;36.42;100066.41;5007990;28;20044;-72
2022/02/20 11:32:56;;;;;;;7.93;2.00;;;;;;;22.04;36.38;100045.59;5028155;28;20037;-70